Time;durP1;ratioP1;P1;durP2;ratioP2;P2;SDS_P1;SDS_P2;PMS_P1;PMS_P2;Temp;Humidity;BMP_temperature;BMP_pressure;BME280_temperature;BME280_humidity;BME280_pressure;Samples;Min_cycle;Max_cycle;Signal;HPM_P1;HPM_P2
2021/06/02 00:02:15;;;;;;;17.38;9.43;;;;;;;19.59;45.66;98563.47;4971911;28;20043;-62
2021/06/02 00:04:49;;;;;;;12.35;8.48;;;;;;;19.61;45.50;98571.19;4983607;28;20034;-62
2021/06/02 00:07:22;;;;;;;13.82;9.30;;;;;;;19.59;45.66;98574.84;4970460;28;20033;-62
2021/06/02 00:09:48;;;;;;;11.90;8.75;;;;;;;19.54;46.06;98572.00;4990683;28;20493;-62
2021/06/02 00:12:14;;;;;;;12.63;8.30;;;;;;;19.47;46.02;98568.53;4977838;28;20033;-62
2021/06/02 00:14:39;;;;;;;13.27;8.52;;;;;;;19.48;46.05;98575.44;4960770;28;20038;-62
2021/06/02 00:17:06;;;;;;;10.15;7.57;;;;;;;19.27;45.72;98536.09;4978614;28;20433;-61
2021/06/02 00:19:32;;;;;;;11.40;7.60;;;;;;;19.52;45.51;98567.94;4993808;28;20495;-62
2021/06/02 00:22:00;;;;;;;11.98;7.95;;;;;;;19.47;45.78;98565.09;4980578;28;20032;-63
2021/06/02 00:24:26;;;;;;;12.32;8.90;;;;;;;19.55;45.56;98572.81;4977285;28;20093;-63
2021/06/02 00:26:53;;;;;;;12.88;8.23;;;;;;;19.36;45.46;98537.53;4997185;28;20981;-62
2021/06/02 00:29:20;;;;;;;11.65;7.82;;;;;;;19.61;45.22;98579.09;4975629;28;20042;-63
2021/06/02 00:31:47;;;;;;;11.63;8.00;;;;;;;19.70;44.98;98585.78;4980914;28;20143;-62
2021/06/02 00:34:13;;;;;;;12.25;8.00;;;;;;;19.61;45.26;98590.47;4978332;28;20034;-62
2021/06/02 00:36:43;;;;;;;11.27;7.65;;;;;;;19.16;45.29;98555.97;4976754;28;20027;-62
2021/06/02 00:39:10;;;;;;;12.35;8.20;;;;;;;19.11;45.85;98582.94;4981199;28;20104;-62
2021/06/02 00:41:37;;;;;;;12.82;8.00;;;;;;;19.15;46.13;98584.16;4959706;28;20057;-62
2021/06/02 00:44:11;;;;;;;12.52;8.98;;;;;;;19.04;45.82;98547.84;4983050;28;20053;-62
2021/06/02 00:46:37;;;;;;;12.77;7.68;;;;;;;19.23;45.36;98572.59;4963221;28;20204;-62
2021/06/02 00:49:11;;;;;;;11.18;8.00;;;;;;;19.45;44.93;98594.31;4973506;28;20734;-61
2021/06/02 00:51:36;;;;;;;11.63;7.60;;;;;;;19.54;44.59;98593.09;4981012;28;20876;-62
2021/06/02 00:54:06;;;;;;;11.98;7.45;;;;;;;19.37;44.99;98547.88;4972796;28;20030;-62
2021/06/02 00:56:54;;;;;;;10.10;7.35;;;;;;;19.34;44.94;98555.38;4984526;28;20559;-63
2021/06/02 00:59:34;;;;;;;13.93;6.88;;;;;;;19.51;45.10;98596.16;4976617;28;20232;-63
2021/06/02 01:01:59;;;;;;;;;;;;;;;19.56;45.33;98595.53;4982676;28;20080;-62
2021/06/02 01:04:26;;;;;;;10.55;6.40;;;;;;;19.56;45.07;98591.06;4970186;28;19910;-63
2021/06/02 01:06:52;;;;;;;9.73;5.95;;;;;;;19.55;45.10;98586.81;4982444;28;20030;-63
2021/06/02 01:09:21;;;;;;;9.32;6.22;;;;;;;19.52;45.41;98587.22;4983934;28;20058;-61
2021/06/02 01:11:47;;;;;;;12.20;5.90;;;;;;;19.55;45.16;98592.09;4979555;28;20811;-63
2021/06/02 01:14:14;;;;;;;9.75;5.90;;;;;;;19.53;45.43;98593.28;5000880;28;20423;-62
2021/06/02 01:16:39;;;;;;;9.65;5.47;;;;;;;19.63;45.19;98598.97;4976676;28;20129;-63
2021/06/02 01:19:09;;;;;;;8.68;5.32;;;;;;;19.58;45.84;98596.94;4964678;28;20117;-61
2021/06/02 01:21:36;;;;;;;8.45;5.80;;;;;;;19.49;45.74;98592.88;4982645;28;20716;-60
2021/06/02 01:24:01;;;;;;;11.68;6.22;;;;;;;19.11;45.56;98566.28;4989783;28;20089;-63
2021/06/02 01:26:30;;;;;;;10.50;6.13;;;;;;;19.34;45.83;98597.56;4970670;28;20042;-62
2021/06/02 01:28:56;;;;;;;7.85;5.68;;;;;;;19.36;46.22;98606.06;4979702;28;20078;-63
2021/06/02 01:31:36;;;;;;;9.05;5.85;;;;;;;19.12;46.70;98579.28;4982590;28;20035;-62
2021/06/02 01:34:32;;;;;;;8.68;5.43;;;;;;;19.34;46.48;98597.56;4983083;28;20537;-63
2021/06/02 01:37:35;;;;;;;8.70;5.00;;;;;;;19.36;46.26;98606.88;4981604;28;20337;-63
2021/06/02 01:40:30;;;;;;;11.07;4.60;;;;;;;19.40;45.75;98605.47;4982421;28;20109;-63
2021/06/02 01:43:14;;;;;;;8.18;4.43;;;;;;;19.38;45.30;98610.13;4981503;28;20575;-62
2021/06/02 01:45:51;;;;;;;8.02;4.50;;;;;;;19.40;45.43;98617.81;4981872;28;20034;-64
2021/06/02 01:48:42;;;;;;;8.38;4.57;;;;;;;19.40;45.12;98618.66;4983685;28;20045;-62
2021/06/02 01:51:27;;;;;;;7.10;4.00;;;;;;;19.41;45.54;98627.38;4985002;28;20497;-62
2021/06/02 01:54:30;;;;;;;7.20;4.30;;;;;;;19.45;45.53;98617.22;4962825;28;20121;-62
2021/06/02 01:57:06;;;;;;;6.72;4.28;;;;;;;19.39;45.98;98606.47;4985357;28;20078;-62
2021/06/02 01:59:50;;;;;;;7.80;4.65;;;;;;;19.46;45.65;98617.03;4974904;28;20297;-61
2021/06/02 02:02:24;;;;;;;8.23;4.70;;;;;;;19.21;45.88;98574.63;4992527;28;20037;-62
2021/06/02 02:05:02;;;;;;;8.65;4.82;;;;;;;19.40;45.92;98617.81;4982031;28;20117;-63
2021/06/02 02:07:49;;;;;;;8.35;4.95;;;;;;;19.35;45.88;98605.25;4983132;28;20436;-62
2021/06/02 02:10:35;;;;;;;7.20;4.53;;;;;;;19.23;45.83;98582.34;4979599;28;20382;-62
2021/06/02 02:13:25;;;;;;;7.13;4.32;;;;;;;19.47;46.18;98604.66;4994366;28;20042;-62
2021/06/02 02:15:50;;;;;;;8.32;4.40;;;;;;;19.26;46.47;98581.91;4985546;28;20034;-62
2021/06/02 02:18:28;;;;;;;7.07;4.15;;;;;;;19.28;46.24;98586.00;4972894;28;20038;-62
2021/06/02 02:21:07;;;;;;;7.55;4.22;;;;;;;19.15;45.70;98585.97;4982626;28;20239;-62
2021/06/02 02:23:36;;;;;;;6.80;4.90;;;;;;;19.00;45.37;98600.13;4980483;28;20038;-63
2021/06/02 02:26:22;;;;;;;;;;;;;;;19.16;45.73;98627.13;4961095;28;20113;-62
2021/06/02 02:28:57;;;;;;;9.82;5.45;;;;;;;18.99;46.22;98638.03;4978666;28;20321;-63
2021/06/02 02:31:46;;;;;;;9.15;5.43;;;;;;;19.03;46.17;98635.81;4977969;28;20034;-61
2021/06/02 02:34:23;;;;;;;8.45;5.50;;;;;;;19.12;47.13;98637.25;4999172;28;20363;-62
2021/06/02 02:36:53;;;;;;;8.70;5.38;;;;;;;19.19;46.93;98629.38;4984424;28;20621;-62
2021/06/02 02:39:51;;;;;;;7.97;5.40;;;;;;;19.01;48.54;98635.19;4971113;28;20055;-62
2021/06/02 02:42:34;;;;;;;7.43;5.28;;;;;;;18.90;49.73;98654.22;4966577;28;20096;-63
2021/06/02 02:45:35;;;;;;;7.22;4.57;;;;;;;18.93;49.73;98645.91;4982523;28;20034;-61
2021/06/02 02:48:10;;;;;;;9.05;5.47;;;;;;;18.95;48.70;98649.19;4992558;28;20042;-62
2021/06/02 02:51:18;;;;;;;10.43;4.97;;;;;;;18.85;48.38;98654.00;4980464;28;20037;-61
2021/06/02 02:53:53;;;;;;;8.15;5.03;;;;;;;18.94;48.86;98658.88;4980486;28;20030;-63
2021/06/02 02:56:25;;;;;;;8.68;5.00;;;;;;;19.04;48.37;98657.69;4982270;28;20141;-62
2021/06/02 02:59:11;;;;;;;8.43;4.75;;;;;;;18.92;47.83;98613.47;4980761;28;20381;-62
2021/06/02 03:01:46;;;;;;;7.13;4.00;;;;;;;19.12;48.66;98660.97;5009364;28;20449;-61
2021/06/02 03:04:17;;;;;;;5.65;3.72;;;;;;;18.99;47.87;98656.47;4975539;28;20409;-62
2021/06/02 03:06:46;;;;;;;6.93;3.38;;;;;;;19.11;47.94;98654.09;4955292;28;20389;-62
2021/06/02 03:09:27;;;;;;;6.22;3.35;;;;;;;19.17;48.10;98661.19;4974220;28;20034;-62
2021/06/02 03:12:06;;;;;;;8.68;3.40;;;;;;;19.15;48.33;98657.13;4977733;28;20489;-62
2021/06/02 03:14:47;;;;;;;7.20;3.30;;;;;;;19.02;48.72;98664.00;4978593;28;20085;-63
2021/06/02 03:17:23;;;;;;;8.23;3.83;;;;;;;19.09;48.90;98671.91;4971132;28;20116;-61
2021/06/02 03:19:51;;;;;;;5.18;3.13;;;;;;;19.09;48.32;98668.47;4981169;28;20034;-63
2021/06/02 03:22:21;;;;;;;7.63;3.25;;;;;;;18.98;48.51;98665.41;4977282;28;20035;-63
2021/06/02 03:25:02;;;;;;;6.35;3.15;;;;;;;18.85;48.38;98632.91;5011960;28;20571;-62
2021/06/02 03:27:39;;;;;;;7.55;3.20;;;;;;;18.76;48.78;98632.25;4979281;28;20090;-62
2021/06/02 03:30:10;;;;;;;7.32;3.92;;;;;;;19.12;49.07;98671.50;4974790;28;20114;-62
2021/06/02 03:32:54;;;;;;;7.47;3.65;;;;;;;19.16;49.05;98675.38;4981783;28;20367;-63
2021/06/02 03:35:24;;;;;;;6.40;3.58;;;;;;;19.12;49.20;98675.97;4975973;28;20030;-63
2021/06/02 03:37:58;;;;;;;6.00;3.42;;;;;;;19.09;49.98;98671.09;4981122;28;20045;-62
2021/06/02 03:40:30;;;;;;;6.50;3.30;;;;;;;18.85;49.81;98683.78;4975863;28;20540;-62
2021/06/02 03:43:10;;;;;;;6.43;3.40;;;;;;;18.80;50.23;98683.50;4974774;28;20027;-63
2021/06/02 03:46:11;;;;;;;7.05;3.30;;;;;;;18.84;50.81;98679.53;4974981;28;20088;-63
2021/06/02 03:49:13;;;;;;;6.65;3.60;;;;;;;18.62;50.50;98684.06;4952665;28;20568;-63
2021/06/02 03:51:45;;;;;;;5.43;3.13;;;;;;;18.71;50.25;98692.59;4934591;29;20393;-62
2021/06/02 03:54:34;;;;;;;5.43;2.97;;;;;;;18.74;50.55;98686.94;4974366;28;20032;-61
2021/06/02 03:57:14;;;;;;;7.53;2.80;;;;;;;18.60;50.07;98651.81;4970011;28;20041;-63
2021/06/02 03:59:43;;;;;;;6.50;2.90;;;;;;;18.80;50.05;98680.88;4979149;28;20281;-63
2021/06/02 04:02:14;;;;;;;7.63;3.53;;;;;;;18.81;49.62;98682.53;4976650;28;20849;-65
2021/06/02 04:05:01;;;;;;;5.35;3.10;;;;;;;18.82;50.74;98682.34;4995925;28;20039;-62
2021/06/02 04:07:41;;;;;;;5.53;3.20;;;;;;;18.63;50.13;98683.84;4980760;28;20061;-62
2021/06/02 04:10:09;;;;;;;8.13;3.33;;;;;;;18.61;50.67;98687.69;4969842;28;20077;-62
2021/06/02 04:12:44;;;;;;;5.97;3.33;;;;;;;18.61;50.45;98688.50;4978621;28;20032;-62
2021/06/02 04:15:11;;;;;;;6.43;3.50;;;;;;;18.42;51.01;98692.66;4970969;28;20038;-63
2021/06/02 04:17:37;;;;;;;7.18;3.00;;;;;;;18.41;51.54;98695.47;4961632;28;20401;-63
2021/06/02 04:20:04;;;;;;;5.22;3.22;;;;;;;18.18;51.82;98662.34;4964579;28;20034;-63
2021/06/02 04:22:31;;;;;;;7.28;3.58;;;;;;;18.17;51.98;98652.81;4977561;28;20536;-62
2021/06/02 04:24:58;;;;;;;6.28;3.72;;;;;;;18.52;52.30;98700.19;4982545;28;20041;-62
2021/06/02 04:27:24;;;;;;;6.30;3.67;;;;;;;18.47;52.41;98699.16;4968508;28;20023;-62
2021/06/02 04:29:51;;;;;;;5.95;3.55;;;;;;;18.26;51.01;98661.38;4978439;28;20061;-62
2021/06/02 04:32:17;;;;;;;5.65;3.65;;;;;;;18.29;50.67;98703.09;4983363;28;20062;-62
2021/06/02 04:34:44;;;;;;;6.60;4.07;;;;;;;18.18;50.88;98707.06;5020858;28;20030;-62
2021/06/02 04:37:10;;;;;;;9.82;4.00;;;;;;;18.06;50.68;98706.75;4988864;28;20137;-62
2021/06/02 04:39:38;;;;;;;8.43;4.18;;;;;;;18.03;51.10;98695.81;4969287;28;20034;-62
2021/06/02 04:42:06;;;;;;;7.32;4.20;;;;;;;18.10;50.84;98709.03;4987380;28;20028;-62
2021/06/02 04:44:32;;;;;;;10.02;4.38;;;;;;;18.08;50.61;98703.94;4976391;28;20039;-63
2021/06/02 04:46:59;;;;;;;8.77;4.30;;;;;;;17.93;51.31;98685.63;4984118;28;20018;-63
2021/06/02 04:49:36;;;;;;;7.00;3.80;;;;;;;17.96;51.21;98693.13;4983913;28;20129;-62
2021/06/02 04:52:10;;;;;;;10.95;4.28;;;;;;;17.99;51.72;98702.47;4984971;28;20026;-62
2021/06/02 04:55:06;;;;;;;6.63;4.28;;;;;;;17.95;51.26;98702.03;4983978;28;20022;-63
2021/06/02 04:58:09;;;;;;;6.35;4.00;;;;;;;17.94;51.28;98699.56;4979825;28;20045;-64
2021/06/02 05:00:47;;;;;;;8.10;4.38;;;;;;;18.08;50.87;98708.41;4979179;28;20046;-63
2021/06/02 05:03:31;;;;;;;7.85;4.78;;;;;;;17.84;50.89;98678.84;4990475;28;20050;-63
2021/06/02 05:06:11;;;;;;;7.97;4.22;;;;;;;18.00;50.93;98717.25;4984527;28;20030;-63
2021/06/02 05:08:55;;;;;;;7.57;4.70;;;;;;;18.08;51.21;98717.09;4985755;28;20038;-63
2021/06/02 05:11:46;;;;;;;8.40;5.07;;;;;;;18.05;51.24;98725.38;4987627;28;20030;-62
2021/06/02 05:14:33;;;;;;;7.90;4.72;;;;;;;18.04;51.47;98723.75;4983721;28;20036;-63
2021/06/02 05:17:17;;;;;;;8.23;5.55;;;;;;;18.04;51.32;98729.81;4983926;28;20084;-64
2021/06/02 05:20:19;;;;;;;6.97;4.65;;;;;;;17.93;51.33;98735.59;4982970;28;20113;-64
2021/06/02 05:23:27;;;;;;;9.15;4.75;;;;;;;18.05;51.36;98726.19;4964289;28;20038;-63
2021/06/02 05:26:11;;;;;;;7.65;4.18;;;;;;;17.81;50.94;98684.47;5002605;28;20034;-60
2021/06/02 05:28:58;;;;;;;7.65;4.43;;;;;;;18.12;51.54;98725.44;4978564;28;20152;-63
2021/06/02 05:32:01;;;;;;;7.82;4.05;;;;;;;18.10;52.11;98725.63;4979041;28;20093;-64
2021/06/02 05:35:04;;;;;;;7.28;4.35;;;;;;;18.14;52.54;98726.84;4981106;28;20033;-61
2021/06/02 05:37:35;;;;;;;9.38;4.25;;;;;;;18.19;53.19;98728.94;4983269;28;20054;-63
2021/06/02 05:40:19;;;;;;;6.93;4.18;;;;;;;18.23;52.66;98727.53;4982178;28;20512;-61
2021/06/02 05:43:12;;;;;;;6.55;3.92;;;;;;;18.02;53.39;98707.34;4974348;28;20613;-61
2021/06/02 05:46:15;;;;;;;6.95;4.80;;;;;;;18.17;54.91;98733.56;4980247;28;20540;-62
2021/06/02 05:48:48;;;;;;;9.35;4.15;;;;;;;18.17;54.91;98738.84;4976885;28;20101;-65
2021/06/02 05:51:52;;;;;;;6.45;3.70;;;;;;;18.16;54.34;98734.56;4981637;28;20050;-61
2021/06/02 05:54:26;;;;;;;12.20;4.32;;;;;;;18.07;53.55;98731.28;4972183;28;20058;-63
2021/06/02 05:57:10;;;;;;;8.98;4.68;;;;;;;17.77;54.02;98691.91;5009383;28;20154;-62
2021/06/02 06:00:03;;;;;;;8.18;4.47;;;;;;;18.07;53.48;98731.28;4978384;28;20041;-62
2021/06/02 06:03:05;;;;;;;6.38;4.28;;;;;;;18.19;53.36;98732.38;4978733;28;20069;-62
2021/06/02 06:05:55;;;;;;;8.10;4.65;;;;;;;18.17;54.04;98736.19;4978956;28;20026;-63
2021/06/02 06:08:39;;;;;;;8.07;4.20;;;;;;;18.17;51.85;98744.09;5007228;28;20045;-62
2021/06/02 06:11:23;;;;;;;9.77;5.00;;;;;;;18.20;51.61;98743.72;4978736;28;20034;-63
2021/06/02 06:14:27;;;;;;;6.95;4.22;;;;;;;18.23;51.60;98743.31;5012043;28;20030;-62
2021/06/02 06:17:34;;;;;;;9.77;4.40;;;;;;;18.25;53.49;98744.78;4979923;28;20034;-62
2021/06/02 06:20:34;;;;;;;9.95;4.05;;;;;;;18.18;53.77;98749.16;4968552;28;20034;-61
2021/06/02 06:23:13;;;;;;;7.95;4.22;;;;;;;18.10;52.34;98738.78;4977958;28;20046;-62
2021/06/02 06:25:50;;;;;;;16.83;5.15;;;;;;;18.04;52.29;98758.75;4977836;28;20042;-62
2021/06/02 06:28:51;;;;;;;9.38;4.75;;;;;;;18.07;52.05;98760.22;5009656;28;20046;-61
2021/06/02 06:31:22;;;;;;;7.03;4.60;;;;;;;18.08;52.35;98750.50;4971173;28;20057;-61
2021/06/02 06:33:50;;;;;;;7.65;4.60;;;;;;;18.14;51.86;98755.00;4979135;28;20033;-62
2021/06/02 06:36:17;;;;;;;7.90;4.57;;;;;;;18.05;52.24;98752.50;4996742;28;20141;-61
2021/06/02 06:39:20;;;;;;;8.50;4.60;;;;;;;18.02;52.14;98762.59;4980147;28;20031;-62
2021/06/02 06:41:48;;;;;;;7.15;4.30;;;;;;;18.09;52.05;98760.00;4980556;28;20080;-62
2021/06/02 06:44:14;;;;;;;7.32;4.40;;;;;;;18.06;52.14;98759.38;4961138;28;20030;-62
2021/06/02 06:46:41;;;;;;;8.18;4.85;;;;;;;18.10;52.17;98764.28;4982301;28;20034;-60
2021/06/02 06:49:07;;;;;;;7.43;4.72;;;;;;;17.91;52.55;98731.53;4961093;28;20385;-62
2021/06/02 06:51:34;;;;;;;59.72;11.80;;;;;;;18.08;53.02;98768.91;4982190;28;20038;-62
2021/06/02 06:53:59;;;;;;;7.00;4.70;;;;;;;18.10;52.76;98767.72;4981116;28;20045;-63
2021/06/02 06:56:27;;;;;;;7.32;5.13;;;;;;;18.21;53.11;98780.34;4979006;28;20018;-63
2021/06/02 06:58:52;;;;;;;9.82;4.75;;;;;;;18.21;53.47;98761.94;4981254;28;20474;-62
2021/06/02 07:01:18;;;;;;;8.35;4.65;;;;;;;18.28;52.92;98774.34;4961439;28;20026;-62
2021/06/02 07:03:44;;;;;;;7.68;4.70;;;;;;;18.27;53.53;98768.25;5011023;28;20039;-63
2021/06/02 07:06:12;;;;;;;7.55;4.93;;;;;;;18.39;53.26;98773.81;4976649;28;20466;-63
2021/06/02 07:08:41;;;;;;;7.45;4.93;;;;;;;18.52;52.68;98776.53;4981868;28;20509;-63
2021/06/02 07:11:06;;;;;;;7.45;5.05;;;;;;;18.42;53.35;98765.56;4965460;28;20783;-62
2021/06/02 07:13:32;;;;;;;7.28;4.55;;;;;;;18.60;53.69;98779.03;4975156;28;20045;-63
2021/06/02 07:16:00;;;;;;;8.10;5.30;;;;;;;18.65;54.07;98773.19;4980422;28;20505;-62
2021/06/02 07:18:25;;;;;;;9.20;5.63;;;;;;;18.69;53.28;98773.59;4972480;28;20027;-63
2021/06/02 07:20:52;;;;;;;9.35;6.50;;;;;;;18.72;53.88;98779.31;4981294;28;20041;-62
2021/06/02 07:23:18;;;;;;;8.63;5.80;;;;;;;18.81;53.46;98788.72;4977760;28;20114;-61
2021/06/02 07:25:44;;;;;;;11.07;6.18;;;;;;;18.78;53.81;98785.63;4966210;28;20049;-62
2021/06/02 07:28:11;;;;;;;9.07;6.10;;;;;;;18.87;53.60;98796.84;4977567;28;20448;-61
2021/06/02 07:30:37;;;;;;;9.43;6.72;;;;;;;18.78;53.88;98790.88;4980372;28;20027;-63
2021/06/02 07:33:04;;;;;;;11.98;7.53;;;;;;;18.75;54.16;98801.84;4981765;28;20034;-62
2021/06/02 07:35:30;;;;;;;9.52;6.90;;;;;;;18.55;53.81;98770.91;4965471;28;20030;-62
2021/06/02 07:37:56;;;;;;;12.82;7.68;;;;;;;18.83;54.26;98799.06;4981954;28;20486;-62
2021/06/02 07:40:21;;;;;;;10.43;7.97;;;;;;;18.75;54.70;98801.84;4980845;28;20162;-61
2021/06/02 07:42:46;;;;;;;9.63;7.80;;;;;;;18.80;53.69;98794.13;4982954;28;20464;-62
2021/06/02 07:45:13;;;;;;;11.93;7.65;;;;;;;18.91;54.53;98809.47;4982201;28;20029;-63
2021/06/02 07:47:38;;;;;;;12.27;7.95;;;;;;;18.92;53.59;98797.91;4977634;28;21239;-64
2021/06/02 07:50:04;;;;;;;10.95;7.82;;;;;;;18.73;53.63;98788.03;4984020;28;20034;-62
2021/06/02 07:52:30;;;;;;;9.65;7.53;;;;;;;18.79;53.88;98809.13;4978708;28;20068;-62
2021/06/02 07:54:56;;;;;;;10.00;7.05;;;;;;;18.79;53.67;98803.06;4979441;28;20109;-62
2021/06/02 07:57:21;;;;;;;8.40;7.25;;;;;;;18.88;53.09;98809.84;4980233;28;20566;-60
2021/06/02 07:59:47;;;;;;;11.40;7.95;;;;;;;19.03;52.29;98809.72;4962929;28;20034;-63
2021/06/02 08:02:12;;;;;;;9.93;7.40;;;;;;;19.07;52.54;98821.50;4980692;28;20036;-62
2021/06/02 08:04:38;;;;;;;10.13;7.60;;;;;;;19.02;52.09;98829.19;4977085;28;20445;-63
2021/06/02 08:07:07;;;;;;;14.43;7.18;;;;;;;19.04;51.46;98818.44;4949863;28;20034;-62
2021/06/02 08:09:32;;;;;;;11.43;7.05;;;;;;;18.97;52.78;98823.69;4986168;28;20026;-62
2021/06/02 08:11:58;;;;;;;9.85;7.22;;;;;;;18.93;54.07;98825.88;4981934;28;20031;-62
2021/06/02 08:14:23;;;;;;;11.23;7.97;;;;;;;18.91;53.86;98827.91;4976881;28;20030;-61
2021/06/02 08:16:49;;;;;;;14.20;8.00;;;;;;;19.00;53.53;98810.94;4963810;28;20033;-63
2021/06/02 08:19:14;;;;;;;10.38;7.28;;;;;;;19.02;54.12;98835.25;4980071;28;20552;-62
2021/06/02 08:21:40;;;;;;;10.85;7.13;;;;;;;18.93;53.48;98791.63;4974599;28;20061;-62
2021/06/02 08:24:06;;;;;;;9.73;7.38;;;;;;;18.93;53.76;98828.53;4980586;28;20042;-62
2021/06/02 08:26:36;;;;;;;11.98;7.65;;;;;;;19.00;53.63;98837.28;4976993;28;20034;-63
2021/06/02 08:29:01;;;;;;;;;;;;;;;19.20;53.05;98836.56;4997371;28;20026;-62
2021/06/02 08:31:26;;;;;;;9.70;6.72;;;;;;;19.28;51.48;98815.31;4979358;28;20111;-63
2021/06/02 08:33:52;;;;;;;10.38;7.00;;;;;;;19.26;51.88;98830.53;4981761;28;20066;-63
2021/06/02 08:36:17;;;;;;;11.35;7.63;;;;;;;19.25;53.46;98831.53;5007198;28;20389;-63
2021/06/02 08:38:43;;;;;;;11.10;7.65;;;;;;;19.15;52.15;98833.72;4961234;28;20029;-63
2021/06/02 08:41:09;;;;;;;11.32;7.65;;;;;;;18.97;52.25;98800.78;4980562;28;20053;-62
2021/06/02 08:43:34;;;;;;;10.93;6.85;;;;;;;19.35;53.52;98847.00;4979909;28;20464;-64
2021/06/02 08:46:00;;;;;;;9.65;7.70;;;;;;;19.27;54.17;98834.78;4980768;28;20060;-63
2021/06/02 08:48:26;;;;;;;8.60;7.07;;;;;;;19.39;54.26;98842.94;4993285;28;20113;-63
2021/06/02 08:50:51;;;;;;;9.88;7.68;;;;;;;19.32;53.72;98842.09;4963475;28;20035;-63
2021/06/02 08:53:18;;;;;;;10.48;8.05;;;;;;;19.36;52.80;98836.22;4963746;28;20137;-64
2021/06/02 08:55:45;;;;;;;10.15;7.90;;;;;;;19.36;52.27;98840.69;4963205;28;20035;-63
2021/06/02 08:58:21;;;;;;;12.25;7.57;;;;;;;19.28;52.40;98846.16;4974866;28;20034;-64
2021/06/02 09:00:48;;;;;;;11.35;7.85;;;;;;;19.12;52.01;98839.38;4973998;28;20580;-62
2021/06/02 09:03:14;;;;;;;10.95;7.38;;;;;;;19.31;53.22;98845.75;4966726;28;20093;-63
2021/06/02 09:05:40;;;;;;;10.98;7.47;;;;;;;19.36;52.51;98846.78;4962847;28;20034;-62
2021/06/02 09:08:07;;;;;;;11.73;7.82;;;;;;;19.21;53.33;98848.75;4978187;28;20036;-64
2021/06/02 09:10:40;;;;;;;9.57;7.88;;;;;;;19.12;52.54;98824.34;4956075;28;20540;-63
2021/06/02 09:13:18;;;;;;;11.02;7.40;;;;;;;18.85;53.26;98786.50;4980377;28;20496;-63
2021/06/02 09:15:45;;;;;;;12.35;8.00;;;;;;;19.60;52.79;98844.66;4976423;28;20074;-63
2021/06/02 09:18:17;;;;;;;11.13;6.70;;;;;;;19.91;50.67;98848.63;4978678;28;20045;-63
2021/06/02 09:21:04;;;;;;;10.27;7.03;;;;;;;20.11;50.66;98849.47;4982218;28;20066;-63
2021/06/02 09:23:32;;;;;;;9.98;6.38;;;;;;;20.09;49.76;98840.16;4980480;28;20034;-63
2021/06/02 09:26:09;;;;;;;8.82;6.15;;;;;;;20.43;47.33;98856.84;4981858;28;20034;-62
2021/06/02 09:28:53;;;;;;;9.30;6.15;;;;;;;20.30;48.45;98847.09;4983075;28;20034;-64
2021/06/02 09:31:26;;;;;;;8.82;6.40;;;;;;;20.31;46.68;98841.59;4975197;28;20038;-65
2021/06/02 09:33:56;;;;;;;10.00;6.40;;;;;;;20.22;48.65;98857.84;4974991;28;20041;-63
2021/06/02 09:36:27;;;;;;;9.18;6.38;;;;;;;20.13;49.71;98858.03;4982397;28;20037;-63
2021/06/02 09:38:54;;;;;;;11.65;6.90;;;;;;;19.94;49.48;98827.13;4978691;28;20086;-64
2021/06/02 09:41:20;;;;;;;13.75;6.72;;;;;;;20.17;50.01;98866.38;4962513;28;20046;-64
2021/06/02 09:43:45;;;;;;;10.77;7.35;;;;;;;20.30;50.10;98862.94;4971831;28;20027;-64
2021/06/02 09:46:14;;;;;;;11.40;7.47;;;;;;;20.34;49.42;98857.03;4993653;28;20031;-64
2021/06/02 09:49:00;;;;;;;10.40;7.15;;;;;;;20.50;48.51;98866.41;4974813;28;20047;-64
2021/06/02 09:51:38;;;;;;;10.18;7.38;;;;;;;20.62;49.34;98865.81;4975016;28;20018;-65
2021/06/02 09:54:08;;;;;;;11.32;7.90;;;;;;;20.50;50.12;98866.41;4994045;28;20501;-62
2021/06/02 09:56:38;;;;;;;11.65;7.57;;;;;;;20.46;47.31;98861.72;4978569;28;20117;-64
2021/06/02 09:59:06;;;;;;;11.10;6.85;;;;;;;20.20;48.40;98875.72;4982576;28;20031;-62
2021/06/02 10:01:56;;;;;;;13.30;7.63;;;;;;;20.17;49.94;98880.38;4976599;28;20061;-64
2021/06/02 10:04:42;;;;;;;9.10;6.18;;;;;;;20.53;46.93;98866.00;4973432;28;20521;-64
2021/06/02 10:07:19;;;;;;;8.88;5.90;;;;;;;20.57;45.17;98871.66;4960713;28;20169;-63
2021/06/02 10:09:44;;;;;;;9.00;7.03;;;;;;;20.74;47.66;98872.13;4981140;28;20462;-65
2021/06/02 10:12:13;;;;;;;10.18;7.25;;;;;;;20.86;49.08;98875.78;4987095;28;20100;-63
2021/06/02 10:14:39;;;;;;;8.85;7.07;;;;;;;20.63;48.18;98870.09;4981123;28;20070;-64
2021/06/02 10:17:23;;;;;;;10.05;7.18;;;;;;;20.62;48.98;98858.69;4983485;28;20100;-64
2021/06/02 10:19:51;;;;;;;9.95;6.03;;;;;;;20.93;47.29;98871.28;4973598;28;20059;-64
2021/06/02 10:22:19;;;;;;;10.90;7.22;;;;;;;20.44;46.28;98835.50;4960647;28;20050;-64
2021/06/02 10:24:46;;;;;;;9.63;6.25;;;;;;;20.94;48.37;98872.09;4974918;28;20046;-63
2021/06/02 10:27:12;;;;;;;8.93;6.07;;;;;;;20.79;47.00;98872.31;4958244;28;20041;-63
2021/06/02 10:29:38;;;;;;;6.88;4.93;;;;;;;21.17;44.53;98869.00;4975297;28;20046;-62
2021/06/02 10:32:05;;;;;;;10.13;5.30;;;;;;;21.16;43.83;98817.16;4981550;28;20797;-62
2021/06/02 10:34:30;;;;;;;8.68;5.05;;;;;;;20.94;42.67;98821.88;4981257;28;20485;-63
2021/06/02 10:36:56;;;;;;;6.65;4.50;;;;;;;21.27;42.18;98835.00;4974126;28;20113;-63
2021/06/02 10:39:22;;;;;;;8.60;4.85;;;;;;;21.38;41.95;98852.06;4975776;28;20126;-62
2021/06/02 10:41:54;;;;;;;6.07;3.75;;;;;;;21.64;40.72;98871.53;4979471;28;20037;-64
2021/06/02 10:44:28;;;;;;;7.93;5.05;;;;;;;21.62;42.36;98861.16;4982187;28;20034;-64
2021/06/02 10:46:54;;;;;;;8.57;5.18;;;;;;;21.54;43.10;98873.78;4977729;28;20145;-63
2021/06/02 10:49:28;;;;;;;8.32;5.38;;;;;;;21.41;42.83;98864.03;4978619;28;20072;-64
2021/06/02 10:51:56;;;;;;;9.57;5.10;;;;;;;21.04;43.76;98837.31;4952858;28;20022;-62
2021/06/02 10:54:34;;;;;;;7.22;4.10;;;;;;;21.29;42.34;98871.81;4972893;28;20034;-61
2021/06/02 10:57:00;;;;;;;7.47;4.73;;;;;;;21.07;43.24;98872.06;4972721;28;20077;-64
2021/06/02 10:59:38;;;;;;;6.10;4.13;;;;;;;21.21;41.82;98864.94;4973924;28;20058;-63
2021/06/02 11:02:04;;;;;;;6.88;4.22;;;;;;;21.48;41.77;98870.16;4980074;28;20026;-64
2021/06/02 11:04:31;;;;;;;6.88;4.05;;;;;;;21.44;42.04;98871.56;4982277;28;20037;-65
2021/06/02 11:07:36;;;;;;;7.97;4.05;;;;;;;21.56;42.32;98877.03;4974484;28;20133;-65
2021/06/02 11:10:05;;;;;;;7.03;3.80;;;;;;;21.40;40.41;98868.53;4979497;28;20077;-63
2021/06/02 11:12:45;;;;;;;7.63;4.07;;;;;;;21.37;42.58;98833.75;4982336;28;20026;-64
2021/06/02 11:15:47;;;;;;;7.97;3.92;;;;;;;21.57;42.51;98855.66;4982453;28;20052;-65
2021/06/02 11:18:16;;;;;;;7.07;4.07;;;;;;;21.77;44.68;98873.31;4940608;28;20045;-64
2021/06/02 11:20:43;;;;;;;7.05;4.78;;;;;;;21.43;42.40;98872.56;4974398;28;20350;-65
2021/06/02 11:23:11;;;;;;;6.82;4.00;;;;;;;21.63;44.11;98869.91;4960051;28;20034;-64
2021/06/02 11:25:38;;;;;;;7.68;4.47;;;;;;;21.46;42.47;98867.72;4962879;28;20401;-63
2021/06/02 11:28:04;;;;;;;11.10;4.18;;;;;;;21.78;43.54;98869.66;4978322;28;20046;-66
2021/06/02 11:30:30;;;;;;;6.35;4.45;;;;;;;21.84;42.88;98876.72;4975525;28;20026;-65
2021/06/02 11:32:58;;;;;;;8.77;4.47;;;;;;;21.75;43.68;98875.34;4978570;28;20038;-65
2021/06/02 11:35:56;;;;;;;7.78;4.53;;;;;;;21.73;42.46;98872.09;4979194;28;20066;-65
2021/06/02 11:38:22;;;;;;;8.07;4.38;;;;;;;21.56;44.04;98871.75;4960335;28;20026;-66
2021/06/02 11:40:49;;;;;;;7.88;4.90;;;;;;;21.56;45.70;98872.59;5003666;28;20045;-66
2021/06/02 11:43:14;;;;;;;9.95;5.30;;;;;;;21.42;44.36;98861.19;4965416;28;20041;-66
2021/06/02 11:45:43;;;;;;;8.70;4.90;;;;;;;21.52;45.23;98868.75;4978180;28;20027;-66
2021/06/02 11:48:11;;;;;;;9.70;4.65;;;;;;;21.44;42.59;98872.38;4981614;28;20027;-65
2021/06/02 11:50:37;;;;;;;9.07;4.45;;;;;;;21.53;43.93;98838.59;5006374;28;20069;-66
2021/06/02 11:53:03;;;;;;;12.25;4.38;;;;;;;21.61;43.88;98829.59;4979247;28;20062;-66
2021/06/02 11:55:30;;;;;;;7.85;4.78;;;;;;;21.55;43.74;98870.94;4976526;28;20042;-66
2021/06/02 11:57:56;;;;;;;6.68;4.50;;;;;;;21.65;43.73;98870.53;4974345;28;20034;-66
2021/06/02 12:00:24;;;;;;;6.75;4.28;;;;;;;21.53;43.08;98837.81;4978176;28;20026;-66
2021/06/02 12:03:00;;;;;;;8.50;4.70;;;;;;;21.60;42.27;98873.78;4959793;28;20058;-65
2021/06/02 12:05:36;;;;;;;6.95;4.20;;;;;;;21.55;40.85;98865.66;4978314;28;20018;-66